Time;durP1;ratioP1;P1;durP2;ratioP2;P2;SDS_P1;SDS_P2;PMS_P1;PMS_P2;Temp;Humidity;BMP_temperature;BMP_pressure;BME280_temperature;BME280_humidity;BME280_pressure;Samples;Min_cycle;Max_cycle;Signal;HPM_P1;HPM_P2
2020/12/22 02:33:39;;;;;;;4.30;2.50;;;12.60;99.90;;;-143.32;100.00;96824.69;4919633;29;20487;-92
2020/12/22 02:39:43;;;;;;;2.90;2.27;;;12.60;99.90;;;-143.32;100.00;96826.72;4867514;29;20459;-93
2020/12/22 02:42:31;;;;;;;3.67;2.60;;;12.70;99.90;;;-143.32;100.00;96783.78;4909185;29;20463;-94
2020/12/22 02:45:22;;;;;;;6.00;2.70;;;12.70;99.90;;;-143.32;100.00;96822.63;4919129;29;20459;-93
2020/12/22 02:48:08;;;;;;;3.17;2.43;;;12.80;99.90;;;-143.32;100.00;96775.59;4917249;29;20464;-91
2020/12/22 02:50:38;;;;;;;4.93;2.30;;;12.70;99.90;;;-143.32;100.00;96775.59;4919584;29;20522;-90
2020/12/22 02:53:12;;;;;;;7.53;2.30;;;12.80;99.90;;;-143.32;100.00;96836.94;4918794;29;20495;-92
2020/12/22 02:55:44;;;;;;;3.37;2.33;;;12.80;99.90;;;-143.32;100.00;96773.53;4918935;29;20530;-94
2020/12/22 02:58:20;;;;;;;7.10;2.90;;;12.80;99.90;;;-143.32;100.00;96794.00;4918815;29;20534;-94
2020/12/22 03:00:47;;;;;;;4.03;2.37;;;12.90;99.90;;;-143.32;100.00;96798.09;4919164;29;20447;-91
2020/12/22 03:03:16;;;;;;;3.00;2.17;;;12.90;99.90;;;-143.32;100.00;96802.19;4918269;29;20926;-93
2020/12/22 03:05:44;;;;;;;4.53;2.23;;;12.90;99.90;;;-143.32;100.00;96781.72;4918557;29;20934;-91
2020/12/22 03:08:13;;;;;;;2.60;2.23;;;12.90;99.90;;;-143.32;100.00;96781.72;4918891;29;20538;-92
2020/12/22 03:10:40;;;;;;;4.93;2.23;;;12.90;99.90;;;-143.32;100.00;96781.72;4918175;29;20455;-91
2020/12/22 03:13:10;;;;;;;5.00;2.33;;;12.90;99.90;;;-143.32;100.00;96749.00;4918676;29;20451;-90
2020/12/22 03:16:07;;;;;;;5.57;2.63;;;12.90;99.90;;;-143.32;100.00;96781.72;4918128;29;20941;-92
2020/12/22 03:18:50;;;;;;;5.70;2.50;;;13.00;99.90;;;-143.32;100.00;96783.78;4918909;29;20459;-91
2020/12/22 03:21:21;;;;;;;3.60;1.97;;;13.00;99.90;;;-143.32;100.00;96742.88;4919003;29;20443;-92
2020/12/22 03:24:01;;;;;;;2.40;2.03;;;13.00;99.90;;;-143.32;100.00;96704.00;4918784;29;20496;-92
2020/12/22 03:26:54;;;;;;;5.20;2.37;;;13.00;99.90;;;-143.32;100.00;96806.28;4918686;29;20447;-94
2020/12/22 03:29:26;;;;;;;4.40;2.43;;;13.00;99.90;;;-143.32;100.00;96773.53;4918848;29;20467;-91
2020/12/22 03:32:18;;;;;;;5.50;2.40;;;13.00;99.90;;;-143.32;100.00;96775.59;4918828;29;20451;-92
2020/12/22 03:34:47;;;;;;;2.50;1.80;;;13.00;99.90;;;-143.32;100.00;96763.31;4916057;29;20835;-92
2020/12/22 03:37:30;;;;;;;2.47;1.80;;;13.00;99.90;;;-143.32;100.00;96742.88;4921593;29;20487;-91
2020/12/22 03:40:26;;;;;;;3.00;1.80;;;12.90;99.90;;;-143.32;100.00;96734.69;4921824;29;20469;-92
2020/12/22 03:43:08;;;;;;;2.17;1.97;;;13.00;99.90;;;-143.32;100.00;96783.78;4922420;29;20446;-91
2020/12/22 03:45:48;;;;;;;1.73;1.60;;;13.20;99.90;;;-143.32;100.00;96806.28;4922852;29;20431;-92
2020/12/22 03:48:22;;;;;;;6.33;1.53;;;13.10;99.90;;;-143.32;100.00;96761.28;4923600;29;20450;-93
2020/12/22 03:51:03;;;;;;;2.40;1.60;;;13.10;99.90;;;-143.32;100.00;96767.41;4921983;29;20458;-91
2020/12/22 03:53:34;;;;;;;2.60;1.60;;;13.10;99.90;;;-143.32;100.00;96740.81;4922951;29;20533;-92
2020/12/22 03:56:26;;;;;;;1.90;1.47;;;13.10;99.90;;;-143.32;100.00;96781.72;4922264;29;20479;-94
2020/12/22 03:59:07;;;;;;;2.07;1.70;;;13.20;99.90;;;-143.32;100.00;96742.88;4922975;29;20529;-92
2020/12/22 04:01:40;;;;;;;5.53;1.83;;;13.20;99.90;;;-143.32;100.00;96740.81;4921898;29;20855;-91
2020/12/22 04:04:42;;;;;;;3.23;1.30;;;13.20;99.90;;;-143.32;100.00;96773.53;4922506;29;20458;-93
2020/12/22 04:07:24;;;;;;;4.00;1.70;;;13.20;99.90;;;-143.32;100.00;96777.63;4922342;29;20455;-93
2020/12/22 04:10:02;;;;;;;7.90;2.47;;;13.20;99.90;;;-143.32;100.00;96736.72;4919832;29;20810;-93
2020/12/22 04:12:38;;;;;;;3.20;1.80;;;13.20;99.90;;;-143.32;100.00;96706.03;4922786;29;20529;-93
2020/12/22 04:15:13;;;;;;;4.87;1.50;;;13.30;99.90;;;-143.32;100.00;96767.41;4924671;29;20815;-93
2020/12/22 04:17:44;;;;;;;3.40;2.10;;;13.30;99.90;;;-143.32;100.00;96714.22;4927645;29;20918;-94
2020/12/22 04:20:19;;;;;;;5.90;1.63;;;13.20;99.90;;;-143.32;100.00;96738.78;4926875;29;20453;-92
2020/12/22 04:22:45;;;;;;;5.00;1.63;;;13.30;99.90;;;-143.32;100.00;96749.00;4927296;29;20537;-92
2020/12/22 04:25:21;;;;;;;3.23;1.53;;;13.30;99.90;;;-143.32;100.00;96753.09;4926315;29;20443;-93
2020/12/22 04:27:51;;;;;;;5.27;1.90;;;13.20;99.90;;;-143.32;100.00;96689.69;4926810;29;20457;-92
2020/12/22 04:30:21;;;;;;;2.20;1.30;;;13.30;99.90;;;-143.32;100.00;96738.78;4927042;29;20457;-92
2020/12/22 04:32:47;;;;;;;2.87;1.57;;;13.20;99.90;;;-143.32;100.00;96744.91;4923800;29;20506;-92
2020/12/22 04:35:16;;;;;;;3.30;1.50;;;13.20;99.90;;;-143.32;100.00;96734.69;4925726;29;20475;-91
2020/12/22 04:37:43;;;;;;;4.57;1.50;;;13.20;99.90;;;-143.32;100.00;96749.00;4925120;29;20997;-92
2020/12/22 04:40:10;;;;;;;2.27;1.60;;;13.20;99.90;;;-143.32;100.00;96751.03;4924853;29;20794;-93
2020/12/22 04:42:54;;;;;;;2.30;1.70;;;13.20;99.90;;;-143.32;100.00;96730.59;4926277;29;20455;-93
2020/12/22 04:45:31;;;;;;;3.00;1.33;;;13.30;99.90;;;-143.32;100.00;96736.72;4924665;29;20455;-94
2020/12/22 04:48:04;;;;;;;5.27;1.77;;;13.20;99.90;;;-143.32;100.00;96714.22;4924341;29;20450;-93
2020/12/22 04:50:35;;;;;;;1.57;1.47;;;13.30;99.90;;;-143.32;100.00;96685.59;4927553;29;20451;-93
2020/12/22 04:53:08;;;;;;;3.30;1.97;;;13.30;99.90;;;-143.32;100.00;96712.19;4926118;29;20554;-92
2020/12/22 04:55:43;;;;;;;5.03;1.70;;;13.30;99.90;;;-143.32;100.00;96722.41;4923943;29;20498;-91
2020/12/22 04:58:12;;;;;;;1.87;1.23;;;13.40;99.90;;;-143.32;100.00;96744.91;4923747;29;20446;-94
2020/12/22 05:00:42;;;;;;;1.47;1.37;;;13.40;99.90;;;-143.32;100.00;96701.94;4922009;29;20555;-92
2020/12/22 05:03:15;;;;;;;2.30;1.20;;;13.40;99.90;;;-143.32;100.00;96736.72;4922536;29;20466;-93
2020/12/22 05:05:44;;;;;;;7.40;1.30;;;13.40;99.90;;;-143.32;100.00;96722.41;4923018;29;20455;-93
2020/12/22 05:08:15;;;;;;;1.83;1.40;;;13.40;99.90;;;-143.32;100.00;96718.31;4922106;29;20462;-91
2020/12/22 05:10:46;;;;;;;2.20;1.40;;;13.40;99.90;;;-143.32;100.00;96659.00;4923520;29;20499;-93
2020/12/22 05:13:18;;;;;;;4.97;1.47;;;13.50;99.90;;;-143.32;100.00;96697.88;4922309;29;20990;-92
2020/12/22 05:15:50;;;;;;;1.97;1.50;;;13.50;99.90;;;-143.32;100.00;96706.03;4921815;29;20483;-91
2020/12/22 05:18:20;;;;;;;1.90;1.40;;;13.50;99.90;;;-143.32;100.00;96695.81;4923097;29;20439;-91
2020/12/22 05:20:52;;;;;;;2.20;1.60;;;13.50;99.90;;;-143.32;100.00;96701.94;4921718;29;20440;-90
2020/12/22 05:23:29;;;;;;;2.10;1.20;;;13.50;99.90;;;-143.32;100.00;96704.00;4921847;29;20423;-93
2020/12/22 05:25:59;;;;;;;2.00;1.43;;;13.50;99.90;;;-143.32;100.00;96683.53;4922945;29;20472;-92
2020/12/22 05:28:28;;;;;;;1.60;1.37;;;13.50;99.90;;;-143.32;100.00;96718.31;4922353;29;20462;-92
2020/12/22 05:30:57;;;;;;;2.57;1.30;;;13.50;99.90;;;-143.32;100.00;96722.41;4923523;29;20439;-92
2020/12/22 05:33:26;;;;;;;1.27;1.17;;;13.50;99.90;;;-143.32;100.00;96716.28;4921673;29;20458;-93
2020/12/22 05:35:56;;;;;;;2.87;1.27;;;13.50;99.90;;;-143.32;100.00;96704.00;4921658;29;20561;-91
2020/12/22 05:38:27;;;;;;;2.20;1.27;;;13.50;99.90;;;-143.32;100.00;96683.53;4922988;29;20558;-92
2020/12/22 05:40:57;;;;;;;2.13;1.40;;;13.50;99.90;;;-143.32;100.00;96697.88;4923887;29;20517;-91
2020/12/22 05:43:24;;;;;;;1.23;1.13;;;13.50;99.90;;;-143.32;100.00;96697.88;4924540;29;20455;-93
2020/12/22 05:45:52;;;;;;;1.83;1.47;;;13.50;99.90;;;-143.32;100.00;96636.50;4923234;29;20459;-94
2020/12/22 05:48:28;;;;;;;1.87;1.47;;;13.50;99.90;;;-143.32;100.00;96677.41;4923414;29;20949;-91
2020/12/22 05:50:56;;;;;;;4.67;1.60;;;13.60;99.90;;;-143.32;100.00;96701.94;4922685;29;20851;-93
2020/12/22 05:53:25;;;;;;;6.83;1.30;;;13.50;99.90;;;-143.32;100.00;96722.41;4922979;29;20945;-92
2020/12/22 05:55:54;;;;;;;2.73;1.60;;;13.50;99.90;;;-143.32;100.00;96712.19;4920979;29;20490;-90
2020/12/22 05:58:28;;;;;;;4.00;1.43;;;13.50;99.90;;;-143.32;100.00;96683.53;4922967;29;20455;-92
2020/12/22 06:00:58;;;;;;;2.40;1.60;;;13.50;99.90;;;-143.32;100.00;96753.09;4921207;29;20474;-91
2020/12/22 06:03:25;;;;;;;2.07;1.40;;;13.30;99.90;;;-143.32;100.00;96716.28;4921175;29;20550;-93
2020/12/22 06:05:57;;;;;;;1.80;1.70;;;13.20;99.90;;;-143.32;100.00;96761.28;4920327;29;20462;-92
2020/12/22 06:08:27;;;;;;;2.30;1.60;;;13.10;99.90;;;-143.32;100.00;96775.59;4920731;29;20848;-94
2020/12/22 06:11:02;;;;;;;4.57;1.60;;;13.10;99.90;;;-143.32;100.00;96771.50;4920984;29;20463;-93
2020/12/22 06:13:34;;;;;;;1.80;1.43;;;13.10;99.90;;;-143.32;100.00;96775.59;4920483;29;20415;-91
2020/12/22 09:04:04;;;;;;;8.83;3.30;;;13.30;99.90;;;-143.32;100.00;96744.91;5505863;23;20502;-92
2020/12/22 09:20:22;;;;;;;5.70;1.80;;;13.50;99.90;;;-143.32;100.00;96689.69;4914414;29;20472;-93
2020/12/22 09:51:19;;;;;;;2.20;1.77;;;13.50;99.90;;;-143.32;100.00;96704.00;5570726;23;20503;-81
2020/12/22 11:25:31;;;;;;;5.90;2.20;;;13.50;99.90;;;-143.32;99.87;96683.53;1206032;27;21703;-90
2020/12/22 11:27:58;;;;;;;1.80;1.53;;;13.60;99.90;;;-143.32;99.54;96677.41;4917083;29;20985;-91
2020/12/22 11:30:25;;;;;;;2.50;1.73;;;13.70;99.90;;;-143.32;99.20;96665.13;4918134;29;20498;-90
2020/12/22 11:32:52;;;;;;;10.57;1.93;;;13.80;99.90;;;-143.32;99.66;96634.47;4916967;29;20523;-89
2020/12/22 11:35:22;;;;;;;5.40;1.90;;;13.80;99.90;;;-143.32;99.46;96646.72;4917431;29;20843;-91
2020/12/22 11:37:53;;;;;;;5.13;1.67;;;13.80;99.90;;;-143.32;99.31;96685.59;4917700;29;20445;-90
2020/12/22 11:40:20;;;;;;;3.30;1.80;;;13.80;99.90;;;-143.32;99.03;96648.78;4917433;29;20486;-89
2020/12/22 11:42:48;;;;;;;9.53;1.80;;;13.90;99.90;;;-143.32;98.92;96681.50;4917303;29;20859;-88
2020/12/22 11:45:15;;;;;;;5.30;1.90;;;13.80;99.90;;;-143.32;99.15;96695.81;4917013;29;20435;-90
2020/12/22 11:47:42;;;;;;;2.07;1.70;;;13.80;99.90;;;-143.32;98.76;96695.81;4916772;29;20465;-89
2020/12/22 11:50:08;;;;;;;2.80;1.80;;;13.80;99.90;;;-143.32;98.64;96679.44;4916772;29;20454;-89
2020/12/22 11:52:35;;;;;;;7.50;1.77;;;13.80;99.90;;;-143.32;98.86;96681.50;4917703;29;20451;-90
2020/12/22 11:55:02;;;;;;;4.63;2.40;;;13.80;99.90;;;-143.32;98.71;96646.72;4919444;29;20792;-90
2020/12/22 11:57:31;;;;;;;9.07;2.30;;;13.80;99.90;;;-143.32;98.61;96675.38;4920579;29;20546;-89
2020/12/22 11:59:58;;;;;;;5.13;1.97;;;13.80;99.90;;;-143.32;98.57;96650.81;4921881;29;20463;-90
2020/12/22 12:02:32;;;;;;;2.00;1.73;;;13.80;99.90;;;-143.32;98.02;96640.59;4920795;29;20949;-90
2020/12/22 12:05:01;;;;;;;3.53;2.13;;;13.80;99.90;;;-143.32;97.59;96669.22;4921284;29;20462;-90
2020/12/22 12:07:32;;;;;;;9.57;2.00;;;13.80;99.90;;;-143.32;97.42;96691.72;4920489;29;20455;-89
2020/12/22 12:10:02;;;;;;;11.43;6.80;;;13.80;99.90;;;-143.32;97.66;96665.13;4920507;29;20937;-92
2020/12/22 12:12:29;;;;;;;6.70;2.10;;;13.80;99.90;;;-143.32;97.50;96632.41;4920549;29;20866;-91
2020/12/22 12:14:56;;;;;;;2.67;1.73;;;13.90;99.90;;;-143.32;97.47;96636.50;4920631;29;20451;-90
2020/12/22 12:17:26;;;;;;;6.50;2.00;;;13.90;99.90;;;-143.32;97.16;96644.69;4920612;29;20498;-92
2020/12/22 12:19:53;;;;;;;5.67;2.20;;;13.90;99.90;;;-143.32;97.36;96642.63;4920836;29;20450;-89
2020/12/22 12:22:23;;;;;;;4.57;2.20;;;13.90;99.90;;;-143.32;97.35;96597.63;4920617;29;20447;-89
2020/12/22 12:24:50;;;;;;;7.33;1.83;;;14.00;99.90;;;-143.32;96.90;96634.47;4920397;29;20458;-90
2020/12/22 12:27:18;;;;;;;10.20;2.30;;;14.10;99.90;;;-143.32;96.58;96628.31;4920120;29;20455;-88
2020/12/22 12:29:47;;;;;;;6.57;2.07;;;14.10;99.90;;;-143.32;96.02;96650.81;4919696;29;20439;-90
2020/12/22 12:32:16;;;;;;;5.23;1.57;;;14.00;99.90;;;-143.32;95.97;96661.03;4920255;29;20960;-89
2020/12/22 12:34:51;;;;;;;12.57;2.10;;;14.00;99.90;;;-143.32;96.25;96630.38;4920307;29;20506;-89
2020/12/22 12:37:18;;;;;;;5.17;1.90;;;13.90;99.90;;;-143.32;96.60;96679.44;4920129;29;20530;-90
2020/12/22 12:39:46;;;;;;;5.53;1.90;;;13.80;99.90;;;-143.32;97.04;96677.41;4920144;29;20446;-90
2020/12/22 12:42:14;;;;;;;2.07;1.87;;;13.80;99.90;;;-143.32;96.96;96671.28;4920079;29;20502;-89
2020/12/22 12:44:46;;;;;;;8.10;1.90;;;13.80;99.90;;;-143.32;96.26;96654.91;4919631;29;20976;-91
2020/12/22 12:47:21;;;;;;;3.40;2.10;;;13.90;99.90;;;-143.32;95.63;96650.81;4920971;29;20447;-87
2020/12/22 12:49:54;;;;;;;4.17;1.47;;;13.80;99.90;;;-143.32;95.60;96614.00;4919788;29;20502;-90
2020/12/22 12:52:21;;;;;;;3.60;1.97;;;13.70;99.90;;;-143.32;95.19;96665.13;4919780;29;20435;-88
2020/12/22 12:54:48;;;;;;;2.97;1.70;;;13.90;99.90;;;-143.32;95.09;96661.03;4919533;29;20996;-89
2020/12/22 12:57:23;;;;;;;4.00;1.73;;;14.00;99.90;;;-143.32;94.82;96616.03;4919720;29;20486;-88
2020/12/22 12:59:57;;;;;;;4.07;1.70;;;14.00;99.90;;;-143.32;94.69;96652.88;4919641;29;20536;-89
2020/12/22 13:02:26;;;;;;;3.27;1.70;;;14.00;99.90;;;-143.32;94.79;96642.63;4919822;29;20430;-88
2020/12/22 13:05:02;;;;;;;3.43;1.43;;;14.00;99.90;;;-143.32;94.28;96640.59;4919536;29;20465;-88
2020/12/22 13:07:28;;;;;;;7.90;1.63;;;14.10;99.90;;;-143.32;94.22;96638.56;4918595;29;20470;-89
2020/12/22 13:10:18;;;;;;;4.07;1.20;;;14.00;99.90;;;-143.32;94.47;96622.19;4919740;29;20463;-89
2020/12/22 13:12:48;;;;;;;2.83;1.93;;;14.00;99.90;;;-143.32;94.03;96609.91;4919967;29;20462;-90
2020/12/22 13:22:44;;;;;;;2.63;1.47;;;13.90;99.90;;;-143.32;94.99;96659.00;4893448;29;20451;-88
2020/12/22 13:30:12;;;;;;;3.93;1.80;;;13.80;99.90;;;-143.32;96.40;96665.13;4836550;29;20451;-89
2020/12/22 14:23:34;;;;;;;4.10;1.80;;;12.50;99.90;;;-143.32;100.00;96810.38;5057067;23;20846;-91
2020/12/22 14:26:12;;;;;;;2.63;2.10;;;12.50;99.90;;;-143.32;100.00;96828.78;4919464;29;20818;-88
